AVA8505 SKSM-SKRG
Flight info
| Callsign | AVA8505 |
|---|---|
| Flight time | 1h 6m |
| Altitude | 35000 |
| Route | MGN2D MGN UW3 SERVO/N0458F360 DCT BIVIG BIVIG3C |
| Aircraft | A320/M-SDE3FGHIRWY/LB1 |
Departure
| Time | 2026-05-04 17:35 |
|---|---|
| Airport | Simón Bolívar International Airport (SKSM) |
Arrival
| Time | 2026-05-04 18:41 |
|---|---|
| Airport | Jose Maria Córdova International Airport (SKRG) |
| Time | Latitude | Longitude | Altitude | Speed | Heading |
|---|---|---|---|---|---|
| 2026-05-04 17:12 | 11.11771 | -74.23216 | 50 ft | 0 kts | 270° |
| 2026-05-04 17:28 | 11.11770 | -74.23191 | 22 ft | 4 kts | 279° |
| 2026-05-04 17:29 | 11.11753 | -74.23164 | 23 ft | 0 kts | 359° |
| 2026-05-04 17:31 | 11.11890 | -74.23154 | 23 ft | 17 kts | 13° |
| 2026-05-04 17:32 | 11.12160 | -74.23095 | 22 ft | 22 kts | 12° |
| 2026-05-04 17:33 | 11.12632 | -74.23079 | 22 ft | 11 kts | 359° |
| 2026-05-04 17:33 | 11.12694 | -74.23101 | 22 ft | 8 kts | 345° |
| 2026-05-04 17:34 | 11.12669 | -74.23080 | 24 ft | 0 kts | 178° |
| 2026-05-04 17:34 | 11.12634 | -74.23079 | 22 ft | 25 kts | 178° |
| 2026-05-04 17:35 | 11.09915 | -74.23093 | 1121 ft | 170 kts | 185° |
| 2026-05-04 17:35 | 11.07362 | -74.23254 | 2058 ft | 202 kts | 185° |
| 2026-05-04 17:35 | 11.05867 | -74.23361 | 2384 ft | 228 kts | 184° |
| 2026-05-04 17:36 | 11.04204 | -74.23482 | 2809 ft | 251 kts | 184° |
| 2026-05-04 17:36 | 11.02393 | -74.23614 | 3424 ft | 266 kts | 184° |
| 2026-05-04 17:36 | 11.00526 | -74.23749 | 4277 ft | 271 kts | 184° |
| 2026-05-04 17:36 | 10.98651 | -74.23882 | 5142 ft | 275 kts | 184° |
| 2026-05-04 17:37 | 10.96730 | -74.24039 | 6011 ft | 279 kts | 188° |
| 2026-05-04 17:37 | 10.94821 | -74.24559 | 6833 ft | 283 kts | 200° |
| 2026-05-04 17:37 | 10.92983 | -74.25233 | 7646 ft | 286 kts | 199° |
| 2026-05-04 17:37 | 10.91102 | -74.25923 | 8469 ft | 289 kts | 199° |
| 2026-05-04 17:38 | 10.89200 | -74.26618 | 9280 ft | 292 kts | 199° |
| 2026-05-04 17:38 | 10.87268 | -74.27322 | 10028 ft | 298 kts | 198° |
| 2026-05-04 17:38 | 10.85289 | -74.28043 | 10567 ft | 310 kts | 197° |
| 2026-05-04 17:38 | 10.83180 | -74.28808 | 10780 ft | 333 kts | 197° |
| 2026-05-04 17:39 | 10.78614 | -74.30465 | 11692 ft | 356 kts | 197° |
| 2026-05-04 17:39 | 10.76272 | -74.31318 | 12347 ft | 360 kts | 197° |
| 2026-05-04 17:39 | 10.73901 | -74.32179 | 13004 ft | 364 kts | 197° |
| 2026-05-04 17:40 | 10.71503 | -74.33049 | 13642 ft | 368 kts | 197° |
| 2026-05-04 17:40 | 10.69079 | -74.33927 | 14209 ft | 371 kts | 197° |
| 2026-05-04 17:40 | 10.66638 | -74.34815 | 14790 ft | 374 kts | 197° |
| 2026-05-04 17:40 | 10.64203 | -74.35702 | 15376 ft | 377 kts | 197° |
| 2026-05-04 17:41 | 10.61696 | -74.36615 | 15951 ft | 380 kts | 198° |
| 2026-05-04 17:41 | 10.59229 | -74.37512 | 16508 ft | 383 kts | 198° |
| 2026-05-04 17:41 | 10.56710 | -74.38427 | 17082 ft | 385 kts | 198° |
| 2026-05-04 17:41 | 10.54174 | -74.39347 | 17660 ft | 388 kts | 198° |
| 2026-05-04 17:42 | 10.51620 | -74.40270 | 18203 ft | 391 kts | 198° |
| 2026-05-04 17:42 | 10.49048 | -74.41202 | 18674 ft | 394 kts | 198° |
| 2026-05-04 17:42 | 10.46451 | -74.42143 | 19138 ft | 397 kts | 198° |
| 2026-05-04 17:42 | 10.43838 | -74.43094 | 19595 ft | 400 kts | 199° |
| 2026-05-04 17:43 | 10.41209 | -74.44050 | 20036 ft | 403 kts | 199° |
| 2026-05-04 17:43 | 10.38554 | -74.45014 | 20476 ft | 406 kts | 199° |
| 2026-05-04 17:43 | 10.35881 | -74.45981 | 20895 ft | 410 kts | 199° |
| 2026-05-04 17:43 | 10.33182 | -74.46953 | 21328 ft | 413 kts | 199° |
| 2026-05-04 17:44 | 10.30464 | -74.47935 | 21759 ft | 416 kts | 200° |
| 2026-05-04 17:44 | 10.27725 | -74.48930 | 22150 ft | 420 kts | 200° |
| 2026-05-04 17:44 | 10.24988 | -74.49923 | 22577 ft | 423 kts | 200° |
| 2026-05-04 17:44 | 10.22214 | -74.50931 | 23007 ft | 425 kts | 200° |
| 2026-05-04 17:45 | 10.19418 | -74.51950 | 23437 ft | 428 kts | 200° |
| 2026-05-04 17:45 | 10.16601 | -74.52974 | 23758 ft | 432 kts | 200° |
| 2026-05-04 17:45 | 10.13763 | -74.54003 | 24094 ft | 434 kts | 200° |
| 2026-05-04 17:45 | 10.10906 | -74.55032 | 24437 ft | 436 kts | 200° |
| 2026-05-04 17:46 | 10.08036 | -74.56066 | 24789 ft | 438 kts | 200° |
| 2026-05-04 17:46 | 10.05150 | -74.57109 | 25138 ft | 440 kts | 200° |
| 2026-05-04 17:46 | 10.02286 | -74.58144 | 25480 ft | 442 kts | 200° |
| 2026-05-04 17:46 | 9.99382 | -74.59195 | 25823 ft | 444 kts | 200° |
| 2026-05-04 17:47 | 9.96461 | -74.60251 | 26147 ft | 446 kts | 200° |
| 2026-05-04 17:47 | 9.93532 | -74.61308 | 26478 ft | 448 kts | 200° |
| 2026-05-04 17:47 | 9.90587 | -74.62370 | 26805 ft | 449 kts | 200° |
| 2026-05-04 17:47 | 9.87636 | -74.63437 | 27124 ft | 451 kts | 200° |
| 2026-05-04 17:48 | 9.84674 | -74.64508 | 27450 ft | 453 kts | 200° |
| 2026-05-04 17:48 | 9.81696 | -74.65584 | 27742 ft | 455 kts | 200° |
| 2026-05-04 17:48 | 9.78700 | -74.66669 | 28053 ft | 457 kts | 200° |
| 2026-05-04 17:48 | 9.75732 | -74.67741 | 28356 ft | 459 kts | 200° |
| 2026-05-04 17:49 | 9.72714 | -74.68832 | 28650 ft | 461 kts | 200° |
| 2026-05-04 17:49 | 9.69686 | -74.69926 | 28958 ft | 463 kts | 200° |
| 2026-05-04 17:49 | 9.66644 | -74.71024 | 29233 ft | 464 kts | 200° |
| 2026-05-04 17:49 | 9.63594 | -74.72125 | 29508 ft | 466 kts | 200° |
| 2026-05-04 17:50 | 9.60535 | -74.73227 | 29783 ft | 468 kts | 200° |
| 2026-05-04 17:50 | 9.57464 | -74.74334 | 30043 ft | 469 kts | 200° |
| 2026-05-04 17:50 | 9.54381 | -74.75446 | 30260 ft | 471 kts | 200° |
| 2026-05-04 17:50 | 9.51289 | -74.76559 | 30488 ft | 472 kts | 200° |
| 2026-05-04 17:51 | 9.48186 | -74.77674 | 30707 ft | 474 kts | 200° |
| 2026-05-04 17:51 | 9.45076 | -74.78792 | 30957 ft | 474 kts | 200° |
| 2026-05-04 17:51 | 9.41969 | -74.79911 | 31263 ft | 474 kts | 200° |
| 2026-05-04 17:51 | 9.38867 | -74.81029 | 31578 ft | 473 kts | 200° |
| 2026-05-04 17:52 | 9.35776 | -74.82147 | 31906 ft | 472 kts | 200° |
| 2026-05-04 17:52 | 9.32686 | -74.83260 | 32234 ft | 471 kts | 200° |
| 2026-05-04 17:52 | 9.29593 | -74.84343 | 32563 ft | 470 kts | 197° |
| 2026-05-04 17:52 | 9.26405 | -74.85050 | 32880 ft | 470 kts | 189° |
| 2026-05-04 17:53 | 9.23172 | -74.85556 | 33209 ft | 469 kts | 189° |
| 2026-05-04 17:53 | 9.19951 | -74.86061 | 33548 ft | 468 kts | 189° |
| 2026-05-04 17:53 | 9.16735 | -74.86565 | 33893 ft | 467 kts | 189° |
| 2026-05-04 17:53 | 9.13568 | -74.87058 | 34198 ft | 466 kts | 189° |
| 2026-05-04 17:54 | 9.10328 | -74.87556 | 34508 ft | 465 kts | 189° |
| 2026-05-04 17:54 | 9.07174 | -74.88042 | 34788 ft | 464 kts | 189° |
| 2026-05-04 17:54 | 9.00821 | -74.89022 | 34900 ft | 459 kts | 189° |
| 2026-05-04 17:55 | 8.94515 | -74.89995 | 34898 ft | 458 kts | 189° |
| 2026-05-04 17:55 | 8.88217 | -74.90974 | 34899 ft | 458 kts | 189° |
| 2026-05-04 17:56 | 8.81920 | -74.91958 | 34901 ft | 458 kts | 189° |
| 2026-05-04 17:56 | 8.75624 | -74.92931 | 34905 ft | 457 kts | 189° |
| 2026-05-04 17:57 | 8.69329 | -74.93893 | 34910 ft | 457 kts | 189° |
| 2026-05-04 17:57 | 8.63048 | -74.94860 | 34914 ft | 456 kts | 189° |
| 2026-05-04 17:58 | 8.56781 | -74.95834 | 34912 ft | 455 kts | 189° |
| 2026-05-04 17:58 | 8.50521 | -74.96801 | 34908 ft | 455 kts | 189° |
| 2026-05-04 17:59 | 8.44307 | -74.97763 | 34911 ft | 455 kts | 189° |
| 2026-05-04 18:00 | 8.34914 | -74.99217 | 34904 ft | 455 kts | 188° |
| 2026-05-04 18:00 | 8.28652 | -75.00183 | 34905 ft | 455 kts | 188° |
| 2026-05-04 18:01 | 8.22386 | -75.01143 | 34907 ft | 456 kts | 188° |
| 2026-05-04 18:01 | 8.16118 | -75.02105 | 34912 ft | 456 kts | 188° |
| 2026-05-04 18:02 | 8.06708 | -75.03565 | 34913 ft | 456 kts | 188° |
| 2026-05-04 18:02 | 8.00441 | -75.04528 | 34920 ft | 455 kts | 188° |
| 2026-05-04 18:03 | 7.94173 | -75.05490 | 34922 ft | 455 kts | 188° |
| 2026-05-04 18:03 | 7.87954 | -75.06449 | 34928 ft | 455 kts | 188° |
| 2026-05-04 18:04 | 7.81693 | -75.07420 | 34913 ft | 455 kts | 188° |
| 2026-05-04 18:05 | 7.72292 | -75.08865 | 34926 ft | 456 kts | 188° |
| 2026-05-04 18:05 | 7.66024 | -75.09816 | 34926 ft | 456 kts | 188° |
| 2026-05-04 18:06 | 7.56610 | -75.11233 | 34953 ft | 456 kts | 188° |
| 2026-05-04 18:06 | 7.50344 | -75.12182 | 34953 ft | 455 kts | 188° |
| 2026-05-04 18:07 | 7.44109 | -75.13133 | 34983 ft | 455 kts | 188° |
| 2026-05-04 18:07 | 7.37836 | -75.14092 | 34982 ft | 456 kts | 188° |
| 2026-05-04 18:08 | 7.31571 | -75.15043 | 35012 ft | 456 kts | 188° |
| 2026-05-04 18:08 | 7.25288 | -75.15991 | 35004 ft | 457 kts | 188° |
| 2026-05-04 18:09 | 7.12736 | -75.17892 | 35006 ft | 458 kts | 188° |
| 2026-05-04 18:10 | 7.06434 | -75.18850 | 35006 ft | 458 kts | 188° |
| 2026-05-04 18:10 | 7.00095 | -75.19421 | 34961 ft | 458 kts | 177° |
| 2026-05-04 18:11 | 6.96916 | -75.19266 | 34684 ft | 458 kts | 176° |
| 2026-05-04 18:11 | 6.93710 | -75.19099 | 33788 ft | 463 kts | 176° |
| 2026-05-04 18:11 | 6.90467 | -75.18928 | 32753 ft | 470 kts | 176° |
| 2026-05-04 18:11 | 6.87190 | -75.18756 | 31901 ft | 472 kts | 176° |
| 2026-05-04 18:12 | 6.83927 | -75.18588 | 31318 ft | 468 kts | 176° |
| 2026-05-04 18:12 | 6.80681 | -75.18427 | 30658 ft | 465 kts | 176° |
| 2026-05-04 18:12 | 6.78541 | -75.18322 | 30232 ft | 463 kts | 176° |
| 2026-05-04 18:12 | 6.75331 | -75.18162 | 29541 ft | 459 kts | 176° |
| 2026-05-04 18:13 | 6.72158 | -75.18000 | 28919 ft | 454 kts | 176° |
| 2026-05-04 18:13 | 6.69020 | -75.17839 | 28298 ft | 449 kts | 175° |
| 2026-05-04 18:13 | 6.62831 | -75.17528 | 27075 ft | 441 kts | 176° |
| 2026-05-04 18:14 | 6.59780 | -75.17379 | 26496 ft | 438 kts | 175° |
| 2026-05-04 18:14 | 6.56746 | -75.17228 | 25904 ft | 435 kts | 175° |
| 2026-05-04 18:14 | 6.53735 | -75.17074 | 25334 ft | 431 kts | 175° |
| 2026-05-04 18:15 | 6.47790 | -75.16768 | 24236 ft | 424 kts | 175° |
| 2026-05-04 18:15 | 6.41986 | -75.16483 | 22791 ft | 416 kts | 176° |
| 2026-05-04 18:15 | 6.39113 | -75.16640 | 22322 ft | 412 kts | 187° |
| 2026-05-04 18:16 | 6.36332 | -75.17293 | 21829 ft | 409 kts | 193° |
| 2026-05-04 18:16 | 6.33602 | -75.18043 | 21313 ft | 405 kts | 193° |
| 2026-05-04 18:16 | 6.30887 | -75.18785 | 20879 ft | 402 kts | 193° |
| 2026-05-04 18:17 | 6.25520 | -75.20243 | 19862 ft | 398 kts | 193° |
| 2026-05-04 18:17 | 6.22848 | -75.20967 | 19349 ft | 396 kts | 192° |
| 2026-05-04 18:17 | 6.17523 | -75.22411 | 18255 ft | 395 kts | 192° |
| 2026-05-04 18:18 | 6.14923 | -75.23119 | 17704 ft | 386 kts | 192° |
| 2026-05-04 18:18 | 6.12387 | -75.23812 | 17200 ft | 370 kts | 192° |
| 2026-05-04 18:18 | 6.09951 | -75.24479 | 16707 ft | 356 kts | 192° |
| 2026-05-04 18:18 | 6.07586 | -75.25125 | 16222 ft | 352 kts | 192° |
| 2026-05-04 18:19 | 6.02845 | -75.26408 | 15264 ft | 353 kts | 192° |
| 2026-05-04 18:19 | 6.00465 | -75.27050 | 14780 ft | 354 kts | 193° |
| 2026-05-04 18:19 | 5.98105 | -75.27689 | 14513 ft | 347 kts | 193° |
| 2026-05-04 18:20 | 5.95820 | -75.28312 | 14385 ft | 331 kts | 193° |
| 2026-05-04 18:20 | 5.93666 | -75.28904 | 14223 ft | 311 kts | 193° |
| 2026-05-04 18:20 | 5.91641 | -75.29464 | 14102 ft | 292 kts | 193° |
| 2026-05-04 18:20 | 5.89772 | -75.30165 | 13982 ft | 285 kts | 210° |
| 2026-05-04 18:21 | 5.88355 | -75.31512 | 13814 ft | 282 kts | 235° |
| 2026-05-04 18:21 | 5.87654 | -75.33336 | 13524 ft | 281 kts | 262° |
| 2026-05-04 18:21 | 5.87567 | -75.35309 | 12881 ft | 286 kts | 268° |
| 2026-05-04 18:21 | 5.87554 | -75.37329 | 12165 ft | 292 kts | 269° |
| 2026-05-04 18:22 | 5.87575 | -75.39325 | 11815 ft | 283 kts | 275° |
| 2026-05-04 18:22 | 5.88211 | -75.41080 | 11770 ft | 261 kts | 310° |
| 2026-05-04 18:22 | 5.89627 | -75.42064 | 11636 ft | 244 kts | 348° |
| 2026-05-04 18:22 | 5.91261 | -75.42208 | 11379 ft | 232 kts | 4° |
| 2026-05-04 18:23 | 5.92859 | -75.42177 | 11104 ft | 227 kts | 4° |
| 2026-05-04 18:23 | 5.94422 | -75.42171 | 10826 ft | 223 kts | 2° |
| 2026-05-04 18:23 | 5.95972 | -75.42178 | 10573 ft | 222 kts | 2° |
| 2026-05-04 18:23 | 5.97523 | -75.42189 | 10312 ft | 223 kts | 2° |
| 2026-05-04 18:24 | 5.99072 | -75.42199 | 10046 ft | 221 kts | 2° |
| 2026-05-04 18:24 | 6.00606 | -75.42209 | 9760 ft | 220 kts | 1° |
| 2026-05-04 18:24 | 6.02132 | -75.42219 | 9478 ft | 220 kts | 2° |
| 2026-05-04 18:24 | 6.03619 | -75.42229 | 9204 ft | 208 kts | 2° |
| 2026-05-04 18:25 | 6.05029 | -75.42239 | 8948 ft | 199 kts | 2° |
| 2026-05-04 18:25 | 6.06399 | -75.42247 | 8705 ft | 195 kts | 1° |
| 2026-05-04 18:25 | 6.07699 | -75.42256 | 8473 ft | 181 kts | 2° |
| 2026-05-04 18:25 | 6.08919 | -75.42264 | 8245 ft | 171 kts | 2° |
| 2026-05-04 18:26 | 6.10094 | -75.42272 | 8030 ft | 166 kts | 2° |
| 2026-05-04 18:26 | 6.11240 | -75.42277 | 7790 ft | 163 kts | 1° |
| 2026-05-04 18:26 | 6.12368 | -75.42275 | 7564 ft | 161 kts | 1° |
| 2026-05-04 18:26 | 6.13488 | -75.42280 | 7344 ft | 161 kts | 0° |
| 2026-05-04 18:27 | 6.14611 | -75.42298 | 7099 ft | 161 kts | 0° |
| 2026-05-04 18:27 | 6.15704 | -75.42304 | 6997 ft | 146 kts | 2° |
| 2026-05-04 18:27 | 6.16740 | -75.42290 | 7396 ft | 159 kts | 3° |
| 2026-05-04 18:27 | 6.17889 | -75.42271 | 8245 ft | 169 kts | 2° |
| 2026-05-04 18:28 | 6.19116 | -75.42274 | 8500 ft | 189 kts | 1° |
| 2026-05-04 18:28 | 6.20509 | -75.42283 | 8683 ft | 210 kts | 1° |
| 2026-05-04 18:28 | 6.22052 | -75.42258 | 8847 ft | 232 kts | 10° |
| 2026-05-04 18:28 | 6.23510 | -75.41541 | 9202 ft | 240 kts | 51° |
| 2026-05-04 18:29 | 6.24247 | -75.40070 | 9900 ft | 237 kts | 85° |
| 2026-05-04 18:29 | 6.24054 | -75.38450 | 10607 ft | 237 kts | 109° |
| 2026-05-04 18:29 | 6.23500 | -75.36879 | 10899 ft | 238 kts | 110° |
| 2026-05-04 18:29 | 6.22843 | -75.35377 | 11128 ft | 238 kts | 124° |
| 2026-05-04 18:30 | 6.20154 | -75.33510 | 11843 ft | 241 kts | 154° |
| 2026-05-04 18:30 | 6.18568 | -75.32933 | 12542 ft | 246 kts | 168° |
| 2026-05-04 18:30 | 6.16833 | -75.32749 | 12887 ft | 252 kts | 173° |
| 2026-05-04 18:31 | 6.15084 | -75.32611 | 12966 ft | 252 kts | 173° |
| 2026-05-04 18:31 | 6.13322 | -75.32483 | 12979 ft | 264 kts | 173° |
| 2026-05-04 18:31 | 6.11372 | -75.32336 | 12971 ft | 294 kts | 173° |
| 2026-05-04 18:31 | 6.09295 | -75.32179 | 12960 ft | 302 kts | 173° |
| 2026-05-04 18:32 | 6.07194 | -75.32022 | 12949 ft | 304 kts | 173° |
| 2026-05-04 18:32 | 6.05081 | -75.31867 | 12937 ft | 304 kts | 173° |
| 2026-05-04 18:32 | 6.02982 | -75.31711 | 12925 ft | 297 kts | 173° |
| 2026-05-04 18:32 | 6.00969 | -75.31562 | 12911 ft | 282 kts | 173° |
| 2026-05-04 18:33 | 5.99056 | -75.31420 | 12899 ft | 269 kts | 173° |
| 2026-05-04 18:33 | 5.97210 | -75.31281 | 12894 ft | 264 kts | 173° |
| 2026-05-04 18:33 | 5.95381 | -75.31142 | 12882 ft | 263 kts | 173° |
| 2026-05-04 18:33 | 5.93558 | -75.31002 | 12870 ft | 263 kts | 173° |
| 2026-05-04 18:34 | 5.91734 | -75.30863 | 12855 ft | 263 kts | 173° |
| 2026-05-04 18:34 | 5.89910 | -75.30949 | 12839 ft | 266 kts | 195° |
| 2026-05-04 18:34 | 5.88358 | -75.31961 | 12843 ft | 272 kts | 230° |
| 2026-05-04 18:34 | 5.87598 | -75.33706 | 12709 ft | 278 kts | 262° |
| 2026-05-04 18:35 | 5.87491 | -75.35642 | 12480 ft | 278 kts | 268° |
| 2026-05-04 18:35 | 5.87484 | -75.37581 | 12241 ft | 276 kts | 270° |
| 2026-05-04 18:35 | 5.87685 | -75.39449 | 11983 ft | 270 kts | 289° |
| 2026-05-04 18:35 | 5.88636 | -75.41008 | 11741 ft | 258 kts | 318° |
| 2026-05-04 18:36 | 5.90103 | -75.41930 | 11522 ft | 245 kts | 345° |
| 2026-05-04 18:36 | 5.91762 | -75.42162 | 11279 ft | 240 kts | 2° |
| 2026-05-04 18:36 | 5.93432 | -75.42167 | 11018 ft | 237 kts | 3° |
| 2026-05-04 18:36 | 5.95059 | -75.42174 | 10721 ft | 231 kts | 3° |
| 2026-05-04 18:37 | 5.96648 | -75.42183 | 10450 ft | 227 kts | 2° |
| 2026-05-04 18:37 | 5.98215 | -75.42193 | 10195 ft | 223 kts | 2° |
| 2026-05-04 18:37 | 5.99763 | -75.42203 | 9905 ft | 221 kts | 2° |
| 2026-05-04 18:37 | 6.01301 | -75.42213 | 9623 ft | 220 kts | 3° |
| 2026-05-04 18:38 | 6.02785 | -75.42224 | 9356 ft | 207 kts | 2° |
| 2026-05-04 18:38 | 6.04191 | -75.42233 | 9096 ft | 198 kts | 1° |
| 2026-05-04 18:38 | 6.05560 | -75.42241 | 8857 ft | 195 kts | 2° |
| 2026-05-04 18:38 | 6.06892 | -75.42250 | 8614 ft | 184 kts | 2° |
| 2026-05-04 18:39 | 6.08135 | -75.42259 | 8381 ft | 173 kts | 2° |
| 2026-05-04 18:39 | 6.09312 | -75.42262 | 8165 ft | 165 kts | 2° |
| 2026-05-04 18:39 | 6.10440 | -75.42267 | 7962 ft | 163 kts | 2° |
| 2026-05-04 18:39 | 6.11571 | -75.42277 | 7731 ft | 162 kts | 2° |
| 2026-05-04 18:40 | 6.12699 | -75.42285 | 7505 ft | 161 kts | 1° |
| 2026-05-04 18:40 | 6.13820 | -75.42291 | 7248 ft | 161 kts | 1° |
| 2026-05-04 18:40 | 6.14938 | -75.42301 | 7019 ft | 160 kts | 1° |
| 2026-05-04 18:40 | 6.15958 | -75.42306 | 6979 ft | 125 kts | 359° |
| 2026-05-04 18:41 | 6.16656 | -75.42311 | 6986 ft | 72 kts | 359° |
| 2026-05-04 18:41 | 6.16940 | -75.42338 | 7004 ft | 28 kts | 343° |
| 2026-05-04 18:41 | 6.17089 | -75.42400 | 7013 ft | 16 kts | 329° |
| 2026-05-04 18:41 | 6.17142 | -75.42433 | 7017 ft | 5 kts | 328° |
| 2026-05-04 18:42 | 6.17168 | -75.42449 | 7014 ft | 4 kts | 328° |
| 2026-05-04 18:42 | 6.17184 | -75.42474 | 7018 ft | 4 kts | 283° |
| 2026-05-04 18:42 | 6.17185 | -75.42513 | 7015 ft | 9 kts | 270° |
| 2026-05-04 18:42 | 6.17185 | -75.42582 | 7015 ft | 7 kts | 269° |
| 2026-05-04 18:43 | 6.17150 | -75.42618 | 7017 ft | 12 kts | 182° |
| 2026-05-04 18:43 | 6.17063 | -75.42632 | 7019 ft | 14 kts | 212° |
| 2026-05-04 18:43 | 6.16984 | -75.42688 | 7018 ft | 14 kts | 218° |
| 2026-05-04 18:43 | 6.16928 | -75.42759 | 7018 ft | 9 kts | 243° |
| 2026-05-04 18:44 | 6.16940 | -75.42791 | 7022 ft | 4 kts | 323° |
| 2026-05-04 18:44 | 6.16952 | -75.42796 | 7021 ft | 2 kts | 338° |
| 2026-05-04 18:44 | 6.16963 | -75.42800 | 7019 ft | 1 kts | 338° |
| 2026-05-04 18:44 | 6.16964 | -75.42801 | 7019 ft | 0 kts | 338° |